createdAt,value
2019-03-22T00:02:19.757Z,99.90
2019-03-22T00:04:52.046Z,99.90
2019-03-22T00:07:23.360Z,99.90
2019-03-22T00:09:54.783Z,99.90
2019-03-22T00:12:27.390Z,99.90
2019-03-22T00:15:00.000Z,99.90
2019-03-22T00:17:31.312Z,99.90
2019-03-22T00:20:02.678Z,99.90
2019-03-22T00:22:34.143Z,99.90
2019-03-22T00:25:06.268Z,99.90
2019-03-22T00:27:38.543Z,99.90
2019-03-22T00:30:10.099Z,99.90
2019-03-22T00:32:41.411Z,99.90
2019-03-22T00:35:13.909Z,99.90
2019-03-22T00:37:45.310Z,99.90
2019-03-22T00:40:17.089Z,99.90
2019-03-22T00:42:48.373Z,99.90
2019-03-22T00:45:19.676Z,99.90
2019-03-22T00:47:53.094Z,99.90
2019-03-22T00:50:24.443Z,99.90
2019-03-22T00:52:55.869Z,99.90
2019-03-22T00:55:27.202Z,99.90
2019-03-22T00:57:58.540Z,99.90
2019-03-22T01:00:29.912Z,99.90
2019-03-22T01:03:01.237Z,99.90
2019-03-22T01:05:32.641Z,99.90
2019-03-22T01:08:04.082Z,99.90
2019-03-22T01:10:35.797Z,99.90
2019-03-22T01:13:07.178Z,99.90
2019-03-22T01:15:38.594Z,99.90
2019-03-22T01:18:11.012Z,99.90
2019-03-22T01:20:42.471Z,99.90
2019-03-22T01:23:13.794Z,99.90
2019-03-22T01:25:45.089Z,99.90
2019-03-22T01:28:17.658Z,99.90
2019-03-22T01:30:48.981Z,99.90
2019-03-22T01:33:20.407Z,99.90
2019-03-22T01:35:51.809Z,99.90
2019-03-22T01:38:23.090Z,99.90
2019-03-22T01:40:54.438Z,99.90
2019-03-22T01:43:25.927Z,99.90
2019-03-22T01:45:58.471Z,99.90
2019-03-22T01:48:29.782Z,99.90
2019-03-22T01:51:02.076Z,99.90
2019-03-22T01:53:33.388Z,99.90
2019-03-22T01:56:04.714Z,99.90
2019-03-22T01:58:36.036Z,99.90
2019-03-22T02:01:07.355Z,99.90
2019-03-22T02:03:38.783Z,99.90
2019-03-22T02:06:11.065Z,99.90
2019-03-22T02:08:42.478Z,99.90
2019-03-22T02:11:13.847Z,99.90
2019-03-22T02:13:46.244Z,99.90
2019-03-22T02:16:17.632Z,99.90
2019-03-22T02:18:48.974Z,99.90
2019-03-22T02:21:20.293Z,99.90
2019-03-22T02:23:52.347Z,99.90
2019-03-22T02:26:23.863Z,99.90
2019-03-22T02:28:55.157Z,99.90
2019-03-22T02:31:26.455Z,99.90
2019-03-22T02:33:57.834Z,99.90
2019-03-22T02:36:29.155Z,99.90
2019-03-22T02:39:00.509Z,99.90
2019-03-22T02:41:33.351Z,99.90
2019-03-22T02:44:04.720Z,99.90
2019-03-22T02:46:36.119Z,99.90
2019-03-22T02:49:07.422Z,99.90
2019-03-22T02:51:38.823Z,99.90
2019-03-22T02:54:10.184Z,99.90
2019-03-22T02:56:41.600Z,99.90
2019-03-22T02:59:13.013Z,99.90
2019-03-22T03:01:44.438Z,99.90
2019-03-22T03:04:15.729Z,99.90
2019-03-22T03:06:48.020Z,99.90
2019-03-22T03:09:19.449Z,99.90
2019-03-22T03:11:50.785Z,99.90
2019-03-22T03:14:22.105Z,99.90
2019-03-22T03:16:53.486Z,99.90
2019-03-22T03:19:24.790Z,99.90
2019-03-22T03:21:56.114Z,99.90
2019-03-22T03:24:28.447Z,99.90
2019-03-22T03:26:59.773Z,99.90
2019-03-22T03:29:31.087Z,99.90
2019-03-22T03:32:02.449Z,99.90
2019-03-22T03:34:33.863Z,99.90
2019-03-22T03:37:05.272Z,99.90
2019-03-22T03:39:37.822Z,99.90
2019-03-22T03:42:09.141Z,99.90
2019-03-22T03:44:40.511Z,99.90
2019-03-22T03:47:11.823Z,99.90
2019-03-22T03:49:43.139Z,99.90
2019-03-22T03:52:14.528Z,99.90
2019-03-22T03:54:45.817Z,99.90
2019-03-22T03:57:17.179Z,99.90
2019-03-22T03:59:48.516Z,99.90
2019-03-22T04:02:19.955Z,99.90
2019-03-22T04:04:51.261Z,99.90
2019-03-22T04:07:23.400Z,99.90
2019-03-22T04:09:54.761Z,99.90
2019-03-22T04:12:26.302Z,99.90
2019-03-22T04:14:57.660Z,99.90
2019-03-22T04:17:28.980Z,99.90
2019-03-22T04:20:00.478Z,99.90
2019-03-22T04:22:31.863Z,99.90
2019-03-22T04:25:03.182Z,99.90
2019-03-22T04:27:34.515Z,99.90
2019-03-22T04:30:06.676Z,99.90
2019-03-22T04:32:38.036Z,99.90
2019-03-22T04:35:09.838Z,99.90
2019-03-22T04:37:41.211Z,99.90
2019-03-22T04:40:24.779Z,99.90
2019-03-22T04:42:56.297Z,99.90
2019-03-22T04:45:30.110Z,99.90
2019-03-22T04:48:06.307Z,99.90
2019-03-22T04:50:40.688Z,99.90
2019-03-22T04:53:15.660Z,99.90
2019-03-22T04:55:49.482Z,99.90
2019-03-22T04:58:22.558Z,99.90
2019-03-22T05:00:55.400Z,99.90
2019-03-22T05:03:27.848Z,99.90
2019-03-22T05:06:02.442Z,99.90
2019-03-22T05:08:38.364Z,99.90
2019-03-22T05:11:11.758Z,99.90
2019-03-22T05:13:45.549Z,99.90
2019-03-22T05:16:18.724Z,99.90
2019-03-22T05:18:53.926Z,99.90
2019-03-22T05:21:28.177Z,99.90
2019-03-22T05:24:03.086Z,99.90
2019-03-22T05:26:36.027Z,99.90
2019-03-22T05:29:11.033Z,99.90
2019-03-22T05:32:16.207Z,99.90
2019-03-22T05:34:47.544Z,99.90
2019-03-22T05:37:18.857Z,99.90
2019-03-22T05:39:50.267Z,99.90
2019-03-22T05:42:21.829Z,99.90
2019-03-22T05:44:53.135Z,99.90
2019-03-22T05:47:25.715Z,99.90
2019-03-22T05:49:57.237Z,99.90
2019-03-22T05:52:28.666Z,99.90
2019-03-22T05:55:00.526Z,99.90
2019-03-22T05:57:31.942Z,99.90
2019-03-22T06:00:03.241Z,99.90
2019-03-22T06:02:34.575Z,99.90
2019-03-22T06:05:06.546Z,99.90
2019-03-22T06:07:37.940Z,99.90
2019-03-22T06:10:09.531Z,99.90
2019-03-22T06:12:40.895Z,99.90
2019-03-22T06:15:12.351Z,99.90
2019-03-22T06:17:51.547Z,99.90
2019-03-22T06:20:16.774Z,99.90
2019-03-22T06:22:48.160Z,99.90
2019-03-22T06:25:19.493Z,99.90
2019-03-22T06:27:50.881Z,99.90
2019-03-22T06:30:22.331Z,99.90
2019-03-22T06:32:53.695Z,99.90
2019-03-22T06:35:25.060Z,99.90
2019-03-22T06:37:56.384Z,99.90
2019-03-22T06:40:27.817Z,99.90
2019-03-22T06:43:00.243Z,99.90
2019-03-22T06:45:31.575Z,99.90
2019-03-22T06:48:02.910Z,99.90
2019-03-22T06:50:35.871Z,99.90
2019-03-22T06:53:07.198Z,99.90
2019-03-22T06:55:38.530Z,99.90
2019-03-22T06:58:09.947Z,99.90
2019-03-22T07:00:41.348Z,99.90
2019-03-22T07:03:12.852Z,99.90
2019-03-22T07:05:44.304Z,99.90
2019-03-22T07:08:15.743Z,99.90
2019-03-22T07:10:47.650Z,99.90
2019-03-22T07:16:15.956Z,99.90
2019-03-22T07:18:47.298Z,99.90
2019-03-22T07:21:18.633Z,99.90
2019-03-22T07:23:50.129Z,99.90
2019-03-22T07:26:21.476Z,99.90
2019-03-22T07:28:52.841Z,99.90
2019-03-22T07:31:24.331Z,99.90
2019-03-22T07:33:55.707Z,99.90
2019-03-22T07:36:27.088Z,99.90
2019-03-22T07:38:58.394Z,99.90
2019-03-22T07:41:49.993Z,99.90
2019-03-22T07:44:22.194Z,99.90
2019-03-22T07:46:53.527Z,99.90
2019-03-22T07:49:24.887Z,99.90
2019-03-22T07:51:56.215Z,99.90
2019-03-22T07:54:27.605Z,99.90
2019-03-22T07:56:59.064Z,99.90
2019-03-22T07:59:30.436Z,99.90
2019-03-22T08:02:03.281Z,99.90
2019-03-22T08:04:34.706Z,99.90
2019-03-22T08:07:06.050Z,99.90
2019-03-22T08:09:51.137Z,99.90
2019-03-22T08:12:34.170Z,99.90
2019-03-22T08:15:08.323Z,99.90
2019-03-22T08:17:40.857Z,99.90
2019-03-22T08:20:12.123Z,99.90
2019-03-22T08:22:43.434Z,99.90
2019-03-22T08:25:14.924Z,99.90
2019-03-22T08:27:46.253Z,99.90
2019-03-22T08:30:18.341Z,99.90
2019-03-22T08:32:50.615Z,99.90
2019-03-22T08:35:22.054Z,99.90
2019-03-22T08:37:53.401Z,99.90
2019-03-22T08:40:24.879Z,99.90
2019-03-22T08:42:57.347Z,99.90
2019-03-22T08:45:28.663Z,99.90
2019-03-22T08:48:01.131Z,99.90
2019-03-22T08:50:32.578Z,99.90
2019-03-22T08:53:03.963Z,99.90
2019-03-22T08:55:35.436Z,99.90
2019-03-22T08:58:06.786Z,99.90
2019-03-22T09:00:39.503Z,99.90
2019-03-22T09:03:11.353Z,99.90
2019-03-22T09:05:42.781Z,99.90
2019-03-22T09:08:16.093Z,99.90
2019-03-22T09:10:48.587Z,99.90
2019-03-22T09:13:20.853Z,99.90
2019-03-22T09:15:52.333Z,99.90
2019-03-22T09:18:23.762Z,99.90
2019-03-22T09:20:55.070Z,99.90
2019-03-22T09:23:26.451Z,99.90
2019-03-22T09:25:57.949Z,99.90
2019-03-22T09:28:30.163Z,99.90
2019-03-22T09:31:10.309Z,99.90
2019-03-22T09:33:34.666Z,99.90
2019-03-22T09:36:06.253Z,99.90
2019-03-22T09:38:37.667Z,99.90
2019-03-22T09:41:08.955Z,99.90
2019-03-22T09:43:40.381Z,99.90
2019-03-22T09:46:12.507Z,99.90
2019-03-22T09:48:44.065Z,99.90
2019-03-22T09:51:15.468Z,99.90
2019-03-22T09:53:46.812Z,99.90
2019-03-22T09:56:18.113Z,99.90
2019-03-22T09:58:49.492Z,99.90
2019-03-22T10:01:23.930Z,99.90
2019-03-22T10:03:55.061Z,99.90
2019-03-22T10:06:26.473Z,99.90
2019-03-22T10:08:57.867Z,99.90
2019-03-22T10:11:30.140Z,99.90
2019-03-22T10:14:01.603Z,99.90
2019-03-22T10:16:33.326Z,99.90
2019-03-22T10:19:04.623Z,99.90
2019-03-22T10:21:35.938Z,99.90
2019-03-22T10:24:07.274Z,99.90
2019-03-22T10:26:38.696Z,99.90
2019-03-22T10:29:10.017Z,99.90
2019-03-22T10:31:42.943Z,99.90
2019-03-22T10:34:14.321Z,99.90
2019-03-22T10:36:47.521Z,99.90
2019-03-22T10:39:18.935Z,99.90
2019-03-22T10:41:51.479Z,99.90
2019-03-22T10:44:23.071Z,99.90
2019-03-22T10:46:54.526Z,99.90
2019-03-22T10:49:25.925Z,99.90
2019-03-22T10:51:58.165Z,99.90
2019-03-22T10:54:29.883Z,99.90
2019-03-22T10:57:01.469Z,99.90
2019-03-22T10:59:32.770Z,99.90
2019-03-22T11:02:07.636Z,99.90
2019-03-22T11:04:41.817Z,99.90
2019-03-22T11:07:13.385Z,99.90
2019-03-22T11:09:44.872Z,99.90
2019-03-22T11:12:17.391Z,99.90
2019-03-22T11:14:52.973Z,99.90
2019-03-22T11:17:24.577Z,99.90
2019-03-22T11:19:57.538Z,99.90
2019-03-22T11:22:29.304Z,99.90
2019-03-22T11:25:01.149Z,99.90
2019-03-22T11:27:32.662Z,99.90
2019-03-22T11:30:05.010Z,99.90
2019-03-22T11:32:36.672Z,95.30
2019-03-22T11:35:09.271Z,98.40
2019-03-22T11:37:40.819Z,97.00
2019-03-22T11:40:13.976Z,95.40
2019-03-22T11:42:45.445Z,92.70
2019-03-22T11:48:00.561Z,79.10
2019-03-22T11:50:34.412Z,91.10
2019-03-22T11:53:06.776Z,82.50
2019-03-22T11:55:38.150Z,81.90
2019-03-22T11:58:11.324Z,84.60
2019-03-22T12:00:42.823Z,86.20
2019-03-22T12:03:14.128Z,78.50
2019-03-22T12:05:48.120Z,72.90
2019-03-22T12:08:25.763Z,72.30
2019-03-22T12:10:57.515Z,73.20
2019-03-22T12:13:30.511Z,73.90
2019-03-22T12:16:03.477Z,69.20
2019-03-22T12:18:35.260Z,67.90
2019-03-22T12:21:06.791Z,65.40
2019-03-22T12:23:39.274Z,71.40
2019-03-22T12:26:10.873Z,75.80
2019-03-22T12:28:42.254Z,66.80
2019-03-22T12:31:13.634Z,71.40
2019-03-22T12:33:44.988Z,71.00
2019-03-22T12:36:16.354Z,68.80
2019-03-22T12:38:47.788Z,69.70
2019-03-22T12:41:19.151Z,67.70
2019-03-22T12:43:52.345Z,73.20
2019-03-22T12:46:23.755Z,71.70
2019-03-22T12:48:55.142Z,69.10
2019-03-22T12:51:26.507Z,73.70
2019-03-22T12:53:58.023Z,74.20
2019-03-22T12:56:29.434Z,68.80
2019-03-22T12:59:00.854Z,68.40
2019-03-22T13:01:33.354Z,75.20
2019-03-22T13:04:04.694Z,69.70
2019-03-22T13:06:36.094Z,66.10
2019-03-22T13:09:09.617Z,70.00
2019-03-22T13:11:40.927Z,67.30
2019-03-22T13:14:13.390Z,70.70
2019-03-22T13:16:46.130Z,67.30
2019-03-22T13:19:18.527Z,65.40
2019-03-22T13:21:49.892Z,65.70
2019-03-22T13:24:21.290Z,67.80
2019-03-22T13:26:52.658Z,67.40
2019-03-22T13:29:24.106Z,68.00
2019-03-22T13:31:55.466Z,63.20
2019-03-22T13:34:27.735Z,63.00
2019-03-22T13:36:59.309Z,66.10
2019-03-22T13:39:30.817Z,66.50
2019-03-22T13:42:02.384Z,62.30
2019-03-22T13:44:33.980Z,61.10
2019-03-22T13:47:07.561Z,65.30
2019-03-22T13:49:39.279Z,63.50
2019-03-22T13:52:10.767Z,62.50
2019-03-22T13:54:42.207Z,62.20
2019-03-22T13:57:13.664Z,63.40
2019-03-22T13:59:44.967Z,58.30
2019-03-22T14:02:17.480Z,63.20
2019-03-22T14:04:48.839Z,58.60
2019-03-22T14:07:20.237Z,61.20
2019-03-22T14:09:52.072Z,63.80
2019-03-22T14:12:24.618Z,64.10
2019-03-22T14:14:56.393Z,62.10
2019-03-22T14:17:29.732Z,62.40
2019-03-22T14:20:10.880Z,63.10
2019-03-22T14:22:35.269Z,56.20
2019-03-22T14:25:06.658Z,61.60
2019-03-22T14:27:38.156Z,58.20
2019-03-22T14:30:10.134Z,57.10
2019-03-22T14:32:41.651Z,63.00
2019-03-22T14:35:13.002Z,64.10
2019-03-22T14:37:44.411Z,65.40
2019-03-22T14:40:15.975Z,63.00
2019-03-22T14:42:47.325Z,61.80
2019-03-22T14:45:18.739Z,58.60
2019-03-22T14:47:50.101Z,56.50
2019-03-22T14:50:22.556Z,60.40
2019-03-22T14:52:53.942Z,58.20
2019-03-22T14:55:25.279Z,59.30
2019-03-22T14:57:56.646Z,61.00
2019-03-22T15:00:28.051Z,59.40
2019-03-22T15:02:59.364Z,57.50
2019-03-22T15:05:30.700Z,57.90
2019-03-22T15:08:02.053Z,53.20
2019-03-22T15:10:33.501Z,57.70
2019-03-22T15:13:06.208Z,58.10
2019-03-22T15:15:55.309Z,55.20
2019-03-22T15:18:49.517Z,58.50
2019-03-22T15:21:39.862Z,57.20
2019-03-22T15:24:30.177Z,57.30
2019-03-22T15:27:38.830Z,56.80
2019-03-22T15:30:32.107Z,57.60
2019-03-22T15:33:34.341Z,57.60
2019-03-22T15:36:20.390Z,59.60
2019-03-22T15:39:20.184Z,60.00
2019-03-22T15:41:51.727Z,59.40
2019-03-22T15:46:54.694Z,59.90
2019-03-22T15:49:27.152Z,60.80
2019-03-22T15:51:58.428Z,59.60
2019-03-22T15:54:29.726Z,58.70
2019-03-22T15:57:01.148Z,61.30
2019-03-22T15:59:32.594Z,60.70
2019-03-22T16:02:03.946Z,61.60
2019-03-22T16:04:35.379Z,61.40
2019-03-22T16:07:06.882Z,60.30
2019-03-22T16:09:38.265Z,62.50
2019-03-22T16:12:09.622Z,61.80
2019-03-22T16:14:40.992Z,60.90
2019-03-22T16:17:12.815Z,59.40
2019-03-22T16:19:44.351Z,61.30
2019-03-22T16:22:15.778Z,65.10
2019-03-22T16:24:47.210Z,66.50
2019-03-22T16:27:18.735Z,65.90
2019-03-22T16:29:50.124Z,66.30
2019-03-22T16:32:21.475Z,66.80
2019-03-22T16:34:52.840Z,66.80
2019-03-22T16:37:24.203Z,66.30
2019-03-22T16:39:55.523Z,66.50
2019-03-22T16:42:26.893Z,67.00
2019-03-22T16:44:58.249Z,65.70
2019-03-22T16:47:29.635Z,69.20
2019-03-22T16:50:01.032Z,73.50
2019-03-22T16:52:32.520Z,73.10
2019-03-22T16:55:03.958Z,75.30
2019-03-22T16:57:35.289Z,76.70
2019-03-22T17:00:07.354Z,74.30
2019-03-22T17:02:38.735Z,76.30
2019-03-22T17:05:10.502Z,77.60
2019-03-22T17:07:41.867Z,78.30
2019-03-22T17:10:13.287Z,77.50
2019-03-22T17:12:45.825Z,78.80
2019-03-22T17:15:17.350Z,83.00
2019-03-22T17:17:48.939Z,82.50
2019-03-22T17:20:20.608Z,83.60
2019-03-22T17:22:52.042Z,84.20
2019-03-22T17:25:23.437Z,83.90
2019-03-22T17:27:54.902Z,87.60
2019-03-22T17:30:26.368Z,90.10
2019-03-22T17:32:58.012Z,90.70
2019-03-22T17:35:29.419Z,90.90
2019-03-22T17:38:00.808Z,90.90
2019-03-22T17:40:32.234Z,92.70
2019-03-22T17:43:03.691Z,94.00
2019-03-22T17:45:35.022Z,93.70
2019-03-22T17:48:07.277Z,92.70
2019-03-22T17:50:38.796Z,96.00
2019-03-22T17:53:10.199Z,94.70
2019-03-22T17:55:41.782Z,95.70
2019-03-22T17:58:13.296Z,96.60
2019-03-22T18:00:46.781Z,94.10
2019-03-22T18:03:18.197Z,93.80
2019-03-22T18:05:49.627Z,96.30
2019-03-22T18:08:21.009Z,97.40
2019-03-22T18:10:53.534Z,97.80
2019-03-22T18:13:24.954Z,97.00
2019-03-22T18:15:56.339Z,99.10
2019-03-22T18:18:28.448Z,99.50
2019-03-22T18:20:59.940Z,99.90
2019-03-22T18:23:35.899Z,99.90
2019-03-22T18:26:05.335Z,99.30
2019-03-22T18:28:36.849Z,98.90
2019-03-22T18:31:08.343Z,97.20
2019-03-22T18:33:39.787Z,97.80
2019-03-22T18:36:11.200Z,99.90
2019-03-22T18:38:42.531Z,97.80
2019-03-22T18:41:13.986Z,96.70
2019-03-22T18:43:45.387Z,98.90
2019-03-22T18:46:16.745Z,99.90
2019-03-22T18:48:48.360Z,99.90
2019-03-22T18:51:20.829Z,99.90
2019-03-22T18:53:52.155Z,99.90
2019-03-22T18:56:24.612Z,99.90
2019-03-22T18:58:55.952Z,99.90
2019-03-22T19:01:27.333Z,99.90
2019-03-22T19:03:58.681Z,99.90
2019-03-22T19:10:16.245Z,99.90
2019-03-22T19:12:47.824Z,99.90
2019-03-22T19:15:19.278Z,99.90
2019-03-22T19:17:50.889Z,99.90
2019-03-22T19:20:22.387Z,99.90
2019-03-22T19:22:55.432Z,99.90
2019-03-22T19:25:26.819Z,99.90
2019-03-22T19:27:58.326Z,99.90
2019-03-22T19:30:29.645Z,99.90
2019-03-22T19:33:01.187Z,99.90
2019-03-22T19:35:33.715Z,99.90
2019-03-22T19:38:05.142Z,99.90
2019-03-22T19:40:36.881Z,99.90
2019-03-22T19:43:08.286Z,99.90
2019-03-22T19:45:39.811Z,99.90
2019-03-22T19:48:11.352Z,99.90
2019-03-22T19:50:42.866Z,99.90
2019-03-22T19:53:14.411Z,99.90
2019-03-22T19:55:46.061Z,99.90
2019-03-22T19:58:17.530Z,99.90
2019-03-22T20:00:49.951Z,99.90
2019-03-22T20:03:21.355Z,99.90
2019-03-22T20:05:54.250Z,99.90
2019-03-22T20:08:25.751Z,99.90
2019-03-22T20:10:57.396Z,99.90
2019-03-22T20:16:10.166Z,99.90
2019-03-22T20:18:41.723Z,99.90
2019-03-22T20:21:13.327Z,99.90
2019-03-22T20:23:53.274Z,99.90
2019-03-22T20:26:18.382Z,99.90
2019-03-22T20:28:49.887Z,99.90
2019-03-22T20:31:21.726Z,99.90
2019-03-22T20:33:53.187Z,99.90
2019-03-22T20:36:24.561Z,99.90
2019-03-22T20:38:56.206Z,99.90
2019-03-22T20:41:27.645Z,99.90
2019-03-22T20:43:59.106Z,99.90
2019-03-22T20:46:30.673Z,99.90
2019-03-22T20:49:02.309Z,99.90
2019-03-22T20:51:33.707Z,99.90
2019-03-22T20:54:05.057Z,99.90
2019-03-22T20:56:37.421Z,99.90
2019-03-22T20:59:08.952Z,99.90
2019-03-22T21:01:40.382Z,99.90
2019-03-22T21:04:13.315Z,99.90
2019-03-22T21:06:44.743Z,99.90
2019-03-22T21:09:16.172Z,99.90
2019-03-22T21:11:47.748Z,99.90
2019-03-22T21:14:19.402Z,99.90
2019-03-22T21:16:50.861Z,99.90
2019-03-22T21:19:22.382Z,99.90
2019-03-22T21:21:53.726Z,99.90
2019-03-22T21:24:26.218Z,99.90
2019-03-22T21:26:59.742Z,99.90
2019-03-22T21:29:31.178Z,99.90
2019-03-22T21:32:02.533Z,99.90
2019-03-22T21:34:34.042Z,99.90
2019-03-22T21:37:05.412Z,99.90
2019-03-22T21:39:36.842Z,99.90
2019-03-22T21:42:09.524Z,99.90
2019-03-22T21:44:40.876Z,99.90
2019-03-22T21:47:12.236Z,99.90
2019-03-22T21:49:45.130Z,99.90
2019-03-22T21:52:16.669Z,99.90
2019-03-22T21:54:48.089Z,99.90
2019-03-22T21:57:21.382Z,99.90
2019-03-22T21:59:52.724Z,99.90
2019-03-22T22:02:24.247Z,99.90
2019-03-22T22:04:55.720Z,99.90
2019-03-22T22:07:27.064Z,99.90
2019-03-22T22:09:58.474Z,99.90
2019-03-22T22:12:29.994Z,99.90
2019-03-22T22:15:01.458Z,99.90
2019-03-22T22:17:32.862Z,99.90
2019-03-22T22:20:06.950Z,99.90
2019-03-22T22:22:38.364Z,99.90
2019-03-22T22:25:11.040Z,99.90
2019-03-22T22:27:44.358Z,99.90
2019-03-22T22:30:15.914Z,99.90
2019-03-22T22:32:47.298Z,99.90
2019-03-22T22:35:18.653Z,99.90
2019-03-22T22:37:50.207Z,99.90
2019-03-22T22:40:22.622Z,99.90
2019-03-22T22:42:55.357Z,99.90
2019-03-22T22:45:26.669Z,99.90
2019-03-22T22:47:58.000Z,99.90
2019-03-22T22:50:29.379Z,99.90
2019-03-22T22:53:00.701Z,99.90
2019-03-22T22:55:32.308Z,99.90
2019-03-22T22:58:04.936Z,99.90
2019-03-22T23:00:36.621Z,99.90
2019-03-22T23:03:08.180Z,99.90
2019-03-22T23:05:41.798Z,99.90
2019-03-22T23:08:13.201Z,99.90
2019-03-22T23:10:44.622Z,99.90
2019-03-22T23:13:15.934Z,99.90
2019-03-22T23:15:47.281Z,99.90
2019-03-22T23:18:18.701Z,99.90
2019-03-22T23:20:50.114Z,99.90
2019-03-22T23:23:21.449Z,99.90
2019-03-22T23:25:53.821Z,99.90
2019-03-22T23:28:25.220Z,99.90
2019-03-22T23:30:56.529Z,99.90
2019-03-22T23:33:27.915Z,99.90
2019-03-22T23:35:59.233Z,99.90
2019-03-22T23:38:30.571Z,99.90
2019-03-22T23:41:01.964Z,99.90
2019-03-22T23:43:33.327Z,99.90
2019-03-22T23:46:04.711Z,99.90
2019-03-22T23:48:36.036Z,99.90
2019-03-22T23:51:07.533Z,99.90
2019-03-22T23:53:38.895Z,99.90
2019-03-22T23:56:10.243Z,99.90
2019-03-22T23:58:42.369Z,99.90
